Time;durP1;ratioP1;P1;durP2;ratioP2;P2;SDS_P1;SDS_P2;PMS_P1;PMS_P2;Temp;Humidity;BMP_temperature;BMP_pressure;BME280_temperature;BME280_humidity;BME280_pressure;Samples;Min_cycle;Max_cycle;Signal;HPM_P1;HPM_P2
2021/06/19 00:01:02;;;;;;;3.22;2.60;;;;;;;;;;4880810;29;20124;-44
2021/06/19 00:03:28;;;;;;;3.25;2.53;;;;;;;;;;4880556;29;20502;-44
2021/06/19 00:05:53;;;;;;;5.35;2.25;;;;;;;;;;4880675;29;20469;-44
2021/06/19 00:08:18;;;;;;;7.30;2.80;;;;;;;;;;4880482;29;20029;-44
2021/06/19 00:10:44;;;;;;;4.13;2.83;;;;;;;;;;4880816;29;20421;-44
2021/06/19 00:13:09;;;;;;;4.40;2.67;;;;;;;;;;4880337;29;20033;-45
2021/06/19 00:15:34;;;;;;;10.10;2.78;;;;;;;;;;4880706;29;20071;-44
2021/06/19 00:18:00;;;;;;;7.18;2.60;;;;;;;;;;4880030;29;20051;-44
2021/06/19 00:20:26;;;;;;;2.97;2.47;;;;;;;;;;4880277;29;20497;-44
2021/06/19 00:22:51;;;;;;;7.05;2.67;;;;;;;;;;4880293;29;20376;-44
2021/06/19 00:25:18;;;;;;;4.45;2.58;;;;;;;;;;4880430;29;20472;-44
2021/06/19 00:27:44;;;;;;;3.15;2.50;;;;;;;;;;4880210;29;20112;-45
2021/06/19 00:30:10;;;;;;;8.63;3.13;;;;;;;;;;4880201;29;20044;-44
2021/06/19 00:32:36;;;;;;;5.13;2.85;;;;;;;;;;4880209;29;20093;-44
2021/06/19 00:35:04;;;;;;;3.47;2.80;;;;;;;;;;4880064;29;20021;-44
2021/06/19 00:37:30;;;;;;;5.93;2.42;;;;;;;;;;4879965;29;20033;-44
2021/06/19 00:39:55;;;;;;;4.78;2.58;;;;;;;;;;4880029;29;20511;-45
2021/06/19 00:42:21;;;;;;;4.00;2.90;;;;;;;;;;4880088;29;20040;-44
2021/06/19 00:44:47;;;;;;;4.03;2.97;;;;;;;;;;4879838;29;20366;-44
2021/06/19 00:47:12;;;;;;;2.72;2.45;;;;;;;;;;4879838;29;20037;-45
2021/06/19 00:49:37;;;;;;;3.97;2.97;;;;;;;;;;4879836;29;20027;-44
2021/06/19 00:52:03;;;;;;;8.52;3.03;;;;;;;;;;4879733;29;20035;-44
2021/06/19 00:54:29;;;;;;;3.50;3.17;;;;;;;;;;4879888;29;20113;-44
2021/06/19 00:56:54;;;;;;;3.20;2.80;;;;;;;;;;4879792;29;20037;-45
2021/06/19 00:59:19;;;;;;;2.90;2.55;;;;;;;;;;4879862;29;20029;-44
2021/06/19 01:01:45;;;;;;;5.07;2.83;;;;;;;;;;4879776;29;20041;-44
2021/06/19 01:04:10;;;;;;;5.72;2.47;;;;;;;;;;4879737;29;20021;-44
2021/06/19 01:06:36;;;;;;;3.50;2.67;;;;;;;;;;4879579;29;20432;-45
2021/06/19 01:09:05;;;;;;;4.90;3.00;;;;;;;;;;4879565;29;20025;-44
2021/06/19 01:11:30;;;;;;;5.60;2.47;;;;;;;;;;4879324;29;20033;-43
2021/06/19 01:13:56;;;;;;;6.28;3.22;;;;;;;;;;4879292;29;20104;-44
2021/06/19 01:16:22;;;;;;;3.63;2.78;;;;;;;;;;4879382;29;20033;-44
2021/06/19 01:18:47;;;;;;;10.00;2.85;;;;;;;;;;4879544;29;20032;-44
2021/06/19 01:21:17;;;;;;;3.25;2.25;;;;;;;;;;4879192;29;20397;-44
2021/06/19 01:23:44;;;;;;;3.03;2.63;;;;;;;;;;4879278;29;20107;-44
2021/06/19 01:26:13;;;;;;;3.78;2.63;;;;;;;;;;4877789;29;20117;-44
2021/06/19 01:28:38;;;;;;;3.00;2.38;;;;;;;;;;4879302;29;20029;-44
2021/06/19 01:31:04;;;;;;;3.92;2.72;;;;;;;;;;4878344;29;20025;-45
2021/06/19 01:33:29;;;;;;;2.92;2.55;;;;;;;;;;4879008;29;20539;-44
2021/06/19 01:35:55;;;;;;;4.25;2.95;;;;;;;;;;4879399;29;20036;-44
2021/06/19 01:38:20;;;;;;;3.33;2.78;;;;;;;;;;4878772;29;20400;-43
2021/06/19 01:40:45;;;;;;;3.92;2.80;;;;;;;;;;4878913;29;20081;-44
2021/06/19 01:43:11;;;;;;;2.83;2.60;;;;;;;;;;4878816;29;20157;-45
2021/06/19 01:45:36;;;;;;;6.32;2.60;;;;;;;;;;4879268;29;20029;-44
2021/06/19 01:48:03;;;;;;;7.40;3.15;;;;;;;;;;4878863;29;20037;-45
2021/06/19 01:50:28;;;;;;;5.45;2.80;;;;;;;;;;4877838;29;20041;-44
2021/06/19 01:52:54;;;;;;;5.32;2.53;;;;;;;;;;4878867;29;20433;-44
2021/06/19 01:55:19;;;;;;;4.40;3.30;;;;;;;;;;4878897;29;20484;-44
2021/06/19 01:57:45;;;;;;;4.35;2.55;;;;;;;;;;4877533;29;20124;-44
2021/06/19 02:00:15;;;;;;;6.03;3.28;;;;;;;;;;4878848;29;20062;-44
2021/06/19 02:02:41;;;;;;;3.33;2.75;;;;;;;;;;4878570;29;20044;-45
2021/06/19 02:05:08;;;;;;;3.75;2.90;;;;;;;;;;4878707;29;20017;-44
2021/06/19 02:07:34;;;;;;;5.22;2.40;;;;;;;;;;4878938;29;20113;-44
2021/06/19 02:09:59;;;;;;;3.92;2.75;;;;;;;;;;4878627;29;20045;-44
2021/06/19 02:12:25;;;;;;;6.38;2.88;;;;;;;;;;4878521;29;20535;-44
2021/06/19 02:14:50;;;;;;;4.78;2.70;;;;;;;;;;4878512;29;20014;-44
2021/06/19 02:17:16;;;;;;;4.88;3.20;;;;;;;;;;4878483;29;20397;-44
2021/06/19 02:19:41;;;;;;;3.55;2.63;;;;;;;;;;4878841;29;20026;-44
2021/06/19 02:22:06;;;;;;;4.82;2.60;;;;;;;;;;4878670;29;20041;-44
2021/06/19 02:24:32;;;;;;;3.45;2.42;;;;;;;;;;4878652;29;20424;-44
2021/06/19 02:27:10;;;;;;;4.32;2.92;;;;;;;;;;4878423;29;20033;-45
2021/06/19 02:29:36;;;;;;;6.82;3.58;;;;;;;;;;4878553;29;20101;-44
2021/06/19 02:32:01;;;;;;;3.88;2.80;;;;;;;;;;4878646;29;20365;-44
2021/06/19 02:34:27;;;;;;;4.20;3.20;;;;;;;;;;4878370;29;20037;-44
2021/06/19 02:36:52;;;;;;;4.78;3.17;;;;;;;;;;4878411;29;20048;-44
2021/06/19 02:39:19;;;;;;;3.80;3.33;;;;;;;;;;4878152;29;20088;-44
2021/06/19 02:41:44;;;;;;;5.72;2.78;;;;;;;;;;4879534;29;20429;-44
2021/06/19 02:44:09;;;;;;;3.63;2.83;;;;;;;;;;4881914;29;20041;-44
2021/06/19 02:46:35;;;;;;;5.80;2.72;;;;;;;;;;4882073;29;20029;-44
2021/06/19 02:49:00;;;;;;;4.18;2.90;;;;;;;;;;4882010;29;20396;-44
2021/06/19 02:51:25;;;;;;;3.63;2.58;;;;;;;;;;4882088;29;20064;-44
2021/06/19 02:53:51;;;;;;;4.10;2.90;;;;;;;;;;4881949;29;20032;-44
2021/06/19 02:56:16;;;;;;;4.40;3.25;;;;;;;;;;4881808;29;20089;-44
2021/06/19 02:58:41;;;;;;;3.58;2.97;;;;;;;;;;4881788;29;20468;-45
2021/06/19 03:01:08;;;;;;;5.15;3.30;;;;;;;;;;4881759;29;20501;-44
2021/06/19 03:03:34;;;;;;;4.75;2.85;;;;;;;;;;4881858;29;20028;-44
2021/06/19 03:06:01;;;;;;;4.45;2.70;;;;;;;;;;4881959;29;20475;-44
2021/06/19 03:08:29;;;;;;;3.83;2.72;;;;;;;;;;4881562;29;20488;-44
2021/06/19 03:10:55;;;;;;;3.33;2.83;;;;;;;;;;4881949;29;20059;-46
2021/06/19 03:13:20;;;;;;;5.72;3.38;;;;;;;;;;4881419;29;20496;-44
2021/06/19 03:15:45;;;;;;;3.67;2.53;;;;;;;;;;4881719;29;20092;-44
2021/06/19 03:18:11;;;;;;;5.78;2.50;;;;;;;;;;4881726;29;20037;-44
2021/06/19 03:20:36;;;;;;;8.85;3.33;;;;;;;;;;4881333;29;20488;-45
2021/06/19 03:23:02;;;;;;;4.82;2.83;;;;;;;;;;4881372;29;20037;-44
2021/06/19 03:25:32;;;;;;;6.18;3.25;;;;;;;;;;4881311;29;20536;-44
2021/06/19 03:27:58;;;;;;;5.15;3.20;;;;;;;;;;4881184;29;20385;-44
2021/06/19 03:30:24;;;;;;;11.00;3.25;;;;;;;;;;4881224;29;20060;-44
2021/06/19 03:32:49;;;;;;;3.67;3.10;;;;;;;;;;4881433;29;20067;-44
2021/06/19 03:35:15;;;;;;;6.82;3.15;;;;;;;;;;4881364;29;20174;-44
2021/06/19 03:37:41;;;;;;;5.43;3.17;;;;;;;;;;4881075;29;20392;-45
2021/06/19 03:40:07;;;;;;;4.30;2.90;;;;;;;;;;4881024;29;20463;-45
2021/06/19 03:42:33;;;;;;;3.65;2.70;;;;;;;;;;4881004;29;20100;-44
2021/06/19 03:44:58;;;;;;;4.40;3.05;;;;;;;;;;4881265;29;20119;-44
2021/06/19 03:47:23;;;;;;;3.08;2.78;;;;;;;;;;4879654;29;20385;-44
2021/06/19 03:49:49;;;;;;;4.18;3.25;;;;;;;;;;4880957;29;20132;-44
2021/06/19 03:52:14;;;;;;;3.28;2.85;;;;;;;;;;4879671;29;20491;-43
2021/06/19 03:54:40;;;;;;;2.97;2.55;;;;;;;;;;4878721;29;20025;-44
2021/06/19 03:57:05;;;;;;;4.20;3.08;;;;;;;;;;4880763;29;20041;-44
2021/06/19 03:59:31;;;;;;;5.07;3.30;;;;;;;;;;4880662;29;20022;-44
2021/06/19 04:01:57;;;;;;;3.95;3.30;;;;;;;;;;4880659;29;20048;-44
2021/06/19 04:04:22;;;;;;;3.40;2.72;;;;;;;;;;4880846;29;20021;-44
2021/06/19 04:06:47;;;;;;;7.95;2.90;;;;;;;;;;4880881;29;20548;-44
2021/06/19 04:09:12;;;;;;;4.70;2.97;;;;;;;;;;4879305;29;20517;-45
2021/06/19 04:11:38;;;;;;;4.72;3.08;;;;;;;;;;4880558;29;20037;-44
2021/06/19 04:14:03;;;;;;;3.83;2.75;;;;;;;;;;4880478;29;20392;-44
2021/06/19 04:16:29;;;;;;;5.20;3.05;;;;;;;;;;4880347;29;20036;-44
2021/06/19 04:18:54;;;;;;;6.47;3.22;;;;;;;;;;4880383;29;20029;-44
2021/06/19 04:21:19;;;;;;;3.53;3.08;;;;;;;;;;4880327;29;20037;-44
2021/06/19 04:23:45;;;;;;;10.25;3.55;;;;;;;;;;4879091;29;20021;-44
2021/06/19 04:26:10;;;;;;;4.20;2.65;;;;;;;;;;4880480;29;20037;-44
2021/06/19 04:28:35;;;;;;;7.80;3.67;;;;;;;;;;4880206;29;20029;-44
2021/06/19 04:31:03;;;;;;;3.78;2.95;;;;;;;;;;4880112;29;20029;-44
2021/06/19 04:33:28;;;;;;;4.80;3.10;;;;;;;;;;4880110;29;20383;-44
2021/06/19 04:35:55;;;;;;;5.32;3.70;;;;;;;;;;4880168;29;20114;-44
2021/06/19 04:38:20;;;;;;;5.63;3.13;;;;;;;;;;4879745;29;20045;-44
2021/06/19 04:40:58;;;;;;;4.30;3.30;;;;;;;;;;4879967;29;20147;-45
2021/06/19 04:43:31;;;;;;;4.35;3.17;;;;;;;;;;4878707;29;20071;-44
2021/06/19 04:45:56;;;;;;;6.88;3.78;;;;;;;;;;4879944;29;20040;-45
2021/06/19 04:48:22;;;;;;;5.00;3.33;;;;;;;;;;4880058;29;20032;-44
2021/06/19 04:50:48;;;;;;;6.28;3.60;;;;;;;;;;4880121;29;20044;-45
2021/06/19 04:53:14;;;;;;;6.32;3.75;;;;;;;;;;4879602;29;20027;-44
2021/06/19 04:55:39;;;;;;;6.03;3.88;;;;;;;;;;4879765;29;20124;-44
2021/06/19 04:58:05;;;;;;;5.75;3.65;;;;;;;;;;4879800;29;20028;-44
2021/06/19 05:00:31;;;;;;;4.00;2.92;;;;;;;;;;4879695;29;20186;-44
2021/06/19 05:02:56;;;;;;;5.50;3.83;;;;;;;;;;4879605;29;20017;-44
2021/06/19 05:05:23;;;;;;;8.55;3.33;;;;;;;;;;4878167;29;20044;-44
2021/06/19 05:07:48;;;;;;;6.35;3.67;;;;;;;;;;4879471;29;20157;-44
2021/06/19 05:10:14;;;;;;;6.45;3.22;;;;;;;;;;4879510;29;20108;-44
2021/06/19 05:12:47;;;;;;;4.70;3.53;;;;;;;;;;4878210;29;20024;-44
2021/06/19 05:15:12;;;;;;;;;;;;;;;;;;4879972;29;20177;-44
2021/06/19 05:17:38;;;;;;;4.68;3.10;;;;;;;;;;4879385;29;20404;-44
2021/06/19 05:20:04;;;;;;;15.73;4.68;;;;;;;;;;4879568;29;20044;-44
2021/06/19 05:22:30;;;;;;;4.40;3.60;;;;;;;;;;4879156;29;20029;-44
2021/06/19 05:24:55;;;;;;;6.35;3.58;;;;;;;;;;4879500;29;20522;-45
2021/06/19 05:27:21;;;;;;;7.18;3.90;;;;;;;;;;4877832;29;20416;-45
2021/06/19 05:29:46;;;;;;;5.68;4.03;;;;;;;;;;4879439;29;20025;-44
2021/06/19 05:32:12;;;;;;;10.75;3.70;;;;;;;;;;4879280;29;20468;-44
2021/06/19 05:34:37;;;;;;;6.90;4.13;;;;;;;;;;4879119;29;20362;-44
2021/06/19 05:37:03;;;;;;;6.68;4.03;;;;;;;;;;4879037;29;20020;-44
2021/06/19 05:39:28;;;;;;;5.15;3.78;;;;;;;;;;4878803;29;20057;-44
2021/06/19 05:41:54;;;;;;;5.35;4.00;;;;;;;;;;4879178;29;20041;-47
2021/06/19 05:44:19;;;;;;;7.80;3.92;;;;;;;;;;4879065;29;20025;-44
2021/06/19 05:46:44;;;;;;;5.35;3.58;;;;;;;;;;4879061;29;20025;-45
2021/06/19 05:49:10;;;;;;;6.13;3.58;;;;;;;;;;4879104;29;20392;-44
2021/06/19 05:51:36;;;;;;;5.57;3.58;;;;;;;;;;4877618;29;20141;-44
2021/06/19 05:54:02;;;;;;;5.97;3.58;;;;;;;;;;4879105;29;20029;-44
2021/06/19 05:56:27;;;;;;;3.88;3.35;;;;;;;;;;4878628;29;20021;-44
2021/06/19 05:58:53;;;;;;;4.95;3.75;;;;;;;;;;4878857;29;20077;-44
2021/06/19 06:01:18;;;;;;;4.20;3.45;;;;;;;;;;4878835;29;20104;-44
2021/06/19 06:03:44;;;;;;;7.45;4.00;;;;;;;;;;4878852;29;20077;-44
2021/06/19 06:06:09;;;;;;;3.58;3.28;;;;;;;;;;4878780;29;20098;-44
2021/06/19 06:08:35;;;;;;;5.85;3.60;;;;;;;;;;4878596;29;20031;-44
2021/06/19 06:11:01;;;;;;;5.20;3.53;;;;;;;;;;4879096;29;20025;-43
2021/06/19 06:13:26;;;;;;;5.32;3.40;;;;;;;;;;4878519;29;20029;-43
2021/06/19 06:15:51;;;;;;;3.92;3.45;;;;;;;;;;4878422;29;20059;-45
2021/06/19 06:18:17;;;;;;;7.72;3.47;;;;;;;;;;4878612;29;20029;-44
2021/06/19 06:20:42;;;;;;;7.50;2.78;;;;;;;;;;4878756;29;20116;-43
2021/06/19 06:23:07;;;;;;;3.85;3.53;;;;;;;;;;4878746;29;20115;-45
2021/06/19 06:25:33;;;;;;;3.95;3.25;;;;;;;;;;4877514;29;20021;-44
2021/06/19 06:27:58;;;;;;;6.03;3.80;;;;;;;;;;4878419;29;20155;-44
2021/06/19 06:30:24;;;;;;;3.78;3.42;;;;;;;;;;4878430;29;20021;-44
2021/06/19 06:32:50;;;;;;;7.65;3.65;;;;;;;;;;4878353;29;20060;-44
2021/06/19 06:35:16;;;;;;;4.38;3.15;;;;;;;;;;4878618;29;20109;-44
2021/06/19 06:37:41;;;;;;;7.72;4.45;;;;;;;;;;4878338;29;20488;-44
2021/06/19 06:40:08;;;;;;;4.15;3.75;;;;;;;;;;4878253;29;20052;-44
2021/06/19 06:42:34;;;;;;;4.43;3.17;;;;;;;;;;4878375;29;20077;-43
2021/06/19 06:44:59;;;;;;;5.45;4.40;;;;;;;;;;4878633;29;20104;-44
2021/06/19 06:47:25;;;;;;;7.53;3.92;;;;;;;;;;4878219;29;20090;-43
2021/06/19 06:49:50;;;;;;;5.22;3.63;;;;;;;;;;4878274;29;20017;-44
2021/06/19 06:52:15;;;;;;;5.18;3.58;;;;;;;;;;4878197;29;20029;-44
2021/06/19 06:54:41;;;;;;;6.13;4.03;;;;;;;;;;4878469;29;20077;-44
2021/06/19 06:57:06;;;;;;;5.22;3.65;;;;;;;;;;4877012;29;20442;-44
2021/06/19 06:59:32;;;;;;;5.28;3.78;;;;;;;;;;4876999;29;20104;-45
2021/06/19 07:01:58;;;;;;;5.50;3.63;;;;;;;;;;4878040;29;20041;-45
2021/06/19 07:04:23;;;;;;;4.22;3.25;;;;;;;;;;4878102;29;20465;-44
2021/06/19 07:06:49;;;;;;;4.47;3.20;;;;;;;;;;4878163;29;20033;-44
2021/06/19 07:09:14;;;;;;;4.88;3.67;;;;;;;;;;4878123;29;20021;-45
2021/06/19 07:11:40;;;;;;;5.57;3.85;;;;;;;;;;4878321;29;20448;-44
2021/06/19 07:14:05;;;;;;;7.53;3.63;;;;;;;;;;4877990;29;20104;-44
2021/06/19 07:16:30;;;;;;;3.88;3.45;;;;;;;;;;4878039;29;20058;-44
2021/06/19 07:18:57;;;;;;;4.00;3.03;;;;;;;;;;4877987;29;20024;-44
2021/06/19 07:21:22;;;;;;;5.60;3.47;;;;;;;;;;4877919;29;20085;-44
2021/06/19 07:23:48;;;;;;;4.72;3.75;;;;;;;;;;4877976;29;20041;-44
2021/06/19 07:26:13;;;;;;;5.68;3.95;;;;;;;;;;4878017;29;20029;-44
2021/06/19 07:28:38;;;;;;;5.50;3.97;;;;;;;;;;4879062;29;20444;-44
2021/06/19 07:31:04;;;;;;;4.65;3.53;;;;;;;;;;4881209;29;20391;-45
2021/06/19 07:33:29;;;;;;;5.10;3.65;;;;;;;;;;4881423;29;20017;-44
2021/06/19 07:35:55;;;;;;;6.93;3.90;;;;;;;;;;4881465;29;20529;-44
2021/06/19 07:38:21;;;;;;;7.43;4.05;;;;;;;;;;4879542;29;20045;-46
2021/06/19 07:40:46;;;;;;;4.72;4.03;;;;;;;;;;4881669;29;20056;-43
2021/06/19 07:43:11;;;;;;;5.55;3.72;;;;;;;;;;4881205;29;20065;-44
2021/06/19 07:45:37;;;;;;;6.53;4.07;;;;;;;;;;4880982;29;20072;-44
2021/06/19 07:48:02;;;;;;;6.57;4.20;;;;;;;;;;4880961;29;20013;-44
2021/06/19 07:50:28;;;;;;;7.55;4.05;;;;;;;;;;4880676;29;20041;-43
2021/06/19 07:52:53;;;;;;;7.57;4.38;;;;;;;;;;4881204;29;20013;-45
2021/06/19 07:55:19;;;;;;;4.05;3.47;;;;;;;;;;4880817;29;20045;-44
2021/06/19 07:57:45;;;;;;;5.93;4.03;;;;;;;;;;4881055;29;20025;-43
2021/06/19 08:00:10;;;;;;;5.97;3.47;;;;;;;;;;4880723;29;20495;-44
2021/06/19 08:02:36;;;;;;;7.18;3.40;;;;;;;;;;4880594;29;20073;-44
2021/06/19 08:05:01;;;;;;;4.18;3.28;;;;;;;;;;4880740;29;20118;-44
2021/06/19 08:07:27;;;;;;;6.38;3.80;;;;;;;;;;4880897;29;20040;-44
2021/06/19 08:09:52;;;;;;;9.18;4.80;;;;;;;;;;4880926;29;20079;-44
2021/06/19 08:12:17;;;;;;;8.90;5.40;;;;;;;;;;4880395;29;20027;-44
2021/06/19 08:14:43;;;;;;;7.03;5.40;;;;;;;;;;4880749;29;20088;-44
2021/06/19 08:17:15;;;;;;;5.85;3.75;;;;;;;;;;4880536;29;20112;-44
2021/06/19 08:19:40;;;;;;;9.13;5.00;;;;;;;;;;4880629;29;20037;-44
2021/06/19 08:22:06;;;;;;;5.25;4.47;;;;;;;;;;4880553;29;20041;-44
2021/06/19 08:24:32;;;;;;;5.55;3.85;;;;;;;;;;4879047;29;20029;-44
2021/06/19 08:26:57;;;;;;;7.57;4.10;;;;;;;;;;4880472;29;20472;-44
2021/06/19 08:29:23;;;;;;;6.65;3.92;;;;;;;;;;4880251;29;20564;-44
2021/06/19 08:31:48;;;;;;;7.00;3.97;;;;;;;;;;4880207;29;20029;-45
2021/06/19 08:34:13;;;;;;;7.00;4.30;;;;;;;;;;4880335;29;20029;-46
2021/06/19 08:36:39;;;;;;;6.63;4.13;;;;;;;;;;4880082;29;20020;-44
2021/06/19 08:39:04;;;;;;;7.25;4.72;;;;;;;;;;4879473;29;20117;-44
2021/06/19 08:41:30;;;;;;;7.72;5.10;;;;;;;;;;4879865;29;20040;-44
2021/06/19 08:43:56;;;;;;;7.07;4.32;;;;;;;;;;4878745;29;20566;-44
2021/06/19 08:46:22;;;;;;;7.28;4.47;;;;;;;;;;4879906;29;20072;-44
2021/06/19 08:48:48;;;;;;;7.05;4.00;;;;;;;;;;4880160;29;20029;-45
2021/06/19 08:51:14;;;;;;;6.20;4.60;;;;;;;;;;4879856;29;20357;-44
2021/06/19 08:53:39;;;;;;;9.35;4.93;;;;;;;;;;4879658;29;20116;-44
2021/06/19 08:56:04;;;;;;;6.90;4.63;;;;;;;;;;4878630;29;20021;-45
2021/06/19 08:58:30;;;;;;;12.55;4.88;;;;;;;;;;4879685;29;20039;-44
2021/06/19 09:00:55;;;;;;;6.40;4.90;;;;;;;;;;4879625;29;20052;-44
2021/06/19 09:03:21;;;;;;;8.75;5.10;;;;;;;;;;4879686;29;20036;-44
2021/06/19 09:05:47;;;;;;;9.50;5.30;;;;;;;;;;4879615;29;20021;-44
2021/06/19 09:08:13;;;;;;;8.40;5.78;;;;;;;;;;4879863;29;20093;-44
2021/06/19 09:10:38;;;;;;;8.55;5.35;;;;;;;;;;4879680;29;20031;-44
2021/06/19 09:13:06;;;;;;;8.52;6.10;;;;;;;;;;4879489;29;20029;-44
2021/06/19 09:15:33;;;;;;;7.28;5.13;;;;;;;;;;4879343;29;20025;-45
2021/06/19 09:18:09;;;;;;;5.75;4.78;;;;;;;;;;4879372;29;20036;-44
2021/06/19 09:20:39;;;;;;;8.95;5.60;;;;;;;;;;4879472;29;20072;-44
2021/06/19 09:23:06;;;;;;;7.20;5.28;;;;;;;;;;4879242;29;20051;-44
2021/06/19 09:25:32;;;;;;;6.15;4.70;;;;;;;;;;4879472;29;20033;-44
2021/06/19 09:27:57;;;;;;;9.88;5.97;;;;;;;;;;4879434;29;20025;-43
2021/06/19 09:30:23;;;;;;;9.10;5.90;;;;;;;;;;4879112;29;20037;-44
2021/06/19 09:32:48;;;;;;;9.73;6.55;;;;;;;;;;4879043;29;20354;-45
2021/06/19 09:35:14;;;;;;;11.18;6.63;;;;;;;;;;4879158;29;20556;-44
2021/06/19 09:37:40;;;;;;;9.35;5.53;;;;;;;;;;4878824;29;20051;-44
2021/06/19 09:40:19;;;;;;;9.57;6.15;;;;;;;;;;4878955;29;20116;-45
2021/06/19 09:42:44;;;;;;;9.85;5.93;;;;;;;;;;4878092;29;20112;-44
2021/06/19 09:45:20;;;;;;;10.10;6.10;;;;;;;;;;4878931;29;20465;-44
2021/06/19 09:47:45;;;;;;;7.47;5.97;;;;;;;;;;4879033;29;20021;-44
2021/06/19 09:50:11;;;;;;;5.78;5.05;;;;;;;;;;4878789;29;20029;-44
2021/06/19 09:52:36;;;;;;;8.30;6.18;;;;;;;;;;4878033;29;20033;-43
2021/06/19 09:55:09;;;;;;;8.55;5.50;;;;;;;;;;4877698;29;20029;-44
2021/06/19 09:57:40;;;;;;;16.00;6.47;;;;;;;;;;4878752;29;20416;-44
2021/06/19 10:00:06;;;;;;;8.75;5.35;;;;;;;;;;4878699;29;20493;-44
2021/06/19 10:02:33;;;;;;;8.05;5.75;;;;;;;;;;4878596;29;20146;-44
2021/06/19 10:04:58;;;;;;;10.00;6.20;;;;;;;;;;4878959;29;20112;-44
2021/06/19 10:07:24;;;;;;;7.53;5.40;;;;;;;;;;4878600;29;20024;-44
2021/06/19 10:09:51;;;;;;;8.07;6.15;;;;;;;;;;4877782;29;20086;-45
2021/06/19 10:12:17;;;;;;;9.00;6.50;;;;;;;;;;4878798;29;20029;-44
2021/06/19 10:14:44;;;;;;;8.32;6.70;;;;;;;;;;4878834;29;20085;-44
2021/06/19 10:17:10;;;;;;;6.63;5.63;;;;;;;;;;4878918;29;20029;-44
2021/06/19 10:19:36;;;;;;;10.27;4.72;;;;;;;;;;4877330;29;20075;-44
2021/06/19 10:22:01;;;;;;;11.57;6.70;;;;;;;;;;4878509;29;20060;-44
2021/06/19 10:24:27;;;;;;;7.97;5.68;;;;;;;;;;4878543;29;20081;-44
2021/06/19 10:26:53;;;;;;;7.13;4.75;;;;;;;;;;4877216;29;20032;-44
2021/06/19 10:29:23;;;;;;;6.75;5.15;;;;;;;;;;4878467;29;20112;-44
2021/06/19 10:31:54;;;;;;;8.70;6.25;;;;;;;;;;4878500;29;20063;-44
2021/06/19 10:34:19;;;;;;;11.73;7.47;;;;;;;;;;4878549;29;20057;-44
2021/06/19 10:36:45;;;;;;;7.57;5.80;;;;;;;;;;4878539;29;20452;-44
2021/06/19 10:39:11;;;;;;;10.52;6.05;;;;;;;;;;4878172;29;20449;-44
2021/06/19 10:41:42;;;;;;;7.43;5.93;;;;;;;;;;4878269;29;20130;-43
2021/06/19 10:44:08;;;;;;;9.20;5.25;;;;;;;;;;4878565;29;20116;-44
2021/06/19 10:46:34;;;;;;;7.55;6.00;;;;;;;;;;4878307;29;20448;-44
2021/06/19 10:49:01;;;;;;;8.38;5.78;;;;;;;;;;4878549;29;20033;-44
2021/06/19 10:51:28;;;;;;;9.32;6.22;;;;;;;;;;4878192;29;20540;-44
2021/06/19 10:54:12;;;;;;;7.63;6.50;;;;;;;;;;4878305;29;20071;-44
2021/06/19 10:56:44;;;;;;;13.15;5.78;;;;;;;;;;4876949;29;20029;-43
2021/06/19 10:59:17;;;;;;;7.78;6.22;;;;;;;;;;4878294;29;20037;-44
2021/06/19 11:01:43;;;;;;;13.85;6.47;;;;;;;;;;4878165;29;20719;-44
2021/06/19 11:04:28;;;;;;;7.63;6.10;;;;;;;;;;4881575;29;20117;-44
2021/06/19 11:06:54;;;;;;;8.27;6.35;;;;;;;;;;4880496;29;20033;-44
2021/06/19 11:09:26;;;;;;;9.00;6.00;;;;;;;;;;4881629;29;20054;-44
2021/06/19 11:11:56;;;;;;;10.43;6.18;;;;;;;;;;4881654;29;20116;-44
2021/06/19 11:14:44;;;;;;;9.77;6.47;;;;;;;;;;4881557;29;20029;-44
2021/06/19 11:17:21;;;;;;;10.93;6.75;;;;;;;;;;4881530;29;20415;-44
2021/06/19 11:19:54;;;;;;;9.23;6.57;;;;;;;;;;4881500;29;20043;-44
2021/06/19 11:22:23;;;;;;;11.60;6.75;;;;;;;;;;4881201;29;20402;-44
2021/06/19 11:25:25;;;;;;;7.53;5.55;;;;;;;;;;4880212;29;20491;-44
2021/06/19 11:27:53;;;;;;;7.88;5.63;;;;;;;;;;4897662;29;20499;-44
2021/06/19 11:30:33;;;;;;;7.80;6.30;;;;;;;;;;4884487;29;20029;-44
2021/06/19 11:33:20;;;;;;;9.32;7.72;;;;;;;;;;4881434;29;20376;-44
2021/06/19 11:35:47;;;;;;;7.60;6.80;;;;;;;;;;4881578;29;20575;-44
2021/06/19 11:38:13;;;;;;;9.10;6.07;;;;;;;;;;4881066;29;20049;-44
2021/06/19 11:40:38;;;;;;;9.27;6.18;;;;;;;;;;4881113;29;20052;-43
2021/06/19 11:43:05;;;;;;;10.55;5.93;;;;;;;;;;4880682;29;20037;-44
2021/06/19 11:45:31;;;;;;;7.97;6.57;;;;;;;;;;4881172;29;20037;-44
2021/06/19 11:48:08;;;;;;;8.80;6.35;;;;;;;;;;4881325;29;20529;-43
2021/06/19 11:50:37;;;;;;;10.20;7.05;;;;;;;;;;4881121;29;20037;-43
2021/06/19 11:53:21;;;;;;;11.60;7.13;;;;;;;;;;4880889;29;20029;-44
2021/06/19 11:55:47;;;;;;;8.00;6.55;;;;;;;;;;4880961;29;20056;-44
2021/06/19 11:58:12;;;;;;;8.30;5.93;;;;;;;;;;4880862;29;20376;-44
2021/06/19 12:00:53;;;;;;;8.65;6.18;;;;;;;;;;4880788;29;20045;-44
2021/06/19 12:03:22;;;;;;;7.85;5.75;;;;;;;;;;4880658;29;20037;-44
2021/06/19 12:05:48;;;;;;;11.82;6.80;;;;;;;;;;4880754;29;20025;-44
2021/06/19 12:08:13;;;;;;;9.80;6.50;;;;;;;;;;4880700;29;20055;-44
2021/06/19 12:10:39;;;;;;;10.23;7.30;;;;;;;;;;4880838;29;20033;-44
2021/06/19 12:13:10;;;;;;;11.40;7.70;;;;;;;;;;4880587;29;20568;-44
2021/06/19 12:15:35;;;;;;;8.40;6.50;;;;;;;;;;4879648;29;20029;-44
2021/06/19 12:18:03;;;;;;;8.57;5.85;;;;;;;;;;4880509;29;20017;-44
2021/06/19 12:20:29;;;;;;;8.32;6.13;;;;;;;;;;4880341;29;20045;-44
2021/06/19 12:22:55;;;;;;;9.27;6.80;;;;;;;;;;4880649;29;20072;-44
2021/06/19 12:25:27;;;;;;;9.45;7.18;;;;;;;;;;4879429;29;20432;-44
2021/06/19 12:27:53;;;;;;;;;;;;;;;;;;4880506;29;20032;-44
2021/06/19 12:30:18;;;;;;;8.23;6.60;;;;;;;;;;4880556;29;19912;-43
2021/06/19 12:32:44;;;;;;;8.05;5.60;;;;;;;;;;4880185;29;20041;-43
2021/06/19 12:35:10;;;;;;;11.02;6.45;;;;;;;;;;4879257;29;20553;-44
2021/06/19 12:37:37;;;;;;;13.98;7.03;;;;;;;;;;4878747;29;20076;-44
2021/06/19 12:40:05;;;;;;;7.88;5.45;;;;;;;;;;4880103;29;20033;-43
2021/06/19 12:42:41;;;;;;;7.88;6.10;;;;;;;;;;4879816;29;20041;-44
2021/06/19 12:45:11;;;;;;;11.95;7.38;;;;;;;;;;4880318;29;20033;-44
2021/06/19 12:47:38;;;;;;;11.27;7.28;;;;;;;;;;4879971;29;20044;-43
2021/06/19 12:50:04;;;;;;;10.50;7.22;;;;;;;;;;4879860;29;20029;-44
2021/06/19 12:52:29;;;;;;;10.77;7.05;;;;;;;;;;4879940;29;20025;-44
2021/06/19 12:55:07;;;;;;;8.63;7.53;;;;;;;;;;4879935;29;20040;-44
2021/06/19 12:57:33;;;;;;;8.40;6.45;;;;;;;;;;4879632;29;20048;-43
2021/06/19 12:59:58;;;;;;;8.80;6.85;;;;;;;;;;4880075;29;20017;-43
2021/06/19 13:02:24;;;;;;;8.75;6.63;;;;;;;;;;4879742;29;20044;-44
2021/06/19 13:04:49;;;;;;;10.98;7.70;;;;;;;;;;4879661;29;20512;-44
2021/06/19 13:07:16;;;;;;;9.25;6.55;;;;;;;;;;4879660;29;20497;-43
2021/06/19 13:09:48;;;;;;;7.03;5.35;;;;;;;;;;4879514;29;20021;-44
2021/06/19 13:12:15;;;;;;;9.73;6.10;;;;;;;;;;4878557;29;20033;-44
2021/06/19 13:14:40;;;;;;;11.32;6.95;;;;;;;;;;4879679;29;20076;-44
2021/06/19 13:17:15;;;;;;;20.05;7.28;;;;;;;;;;4879421;29;20037;-43
2021/06/19 13:19:41;;;;;;;7.35;6.35;;;;;;;;;;4879246;29;20033;-43
2021/06/19 13:22:06;;;;;;;7.30;5.30;;;;;;;;;;4879293;29;20092;-43
2021/06/19 13:24:33;;;;;;;10.57;7.43;;;;;;;;;;4879482;29;20385;-43
2021/06/19 13:27:12;;;;;;;11.52;6.65;;;;;;;;;;4879405;29;20108;-43
2021/06/19 13:29:41;;;;;;;8.02;4.63;;;;;;;;;;4879189;29;20033;-45
2021/06/19 13:32:07;;;;;;;9.70;7.50;;;;;;;;;;4879288;29;20437;-43
2021/06/19 13:34:32;;;;;;;10.48;6.75;;;;;;;;;;4879123;29;20112;-43
2021/06/19 13:37:00;;;;;;;8.52;6.80;;;;;;;;;;4879126;29;20069;-43
2021/06/19 13:39:30;;;;;;;12.23;7.45;;;;;;;;;;4878774;29;20056;-44
2021/06/19 13:41:57;;;;;;;8.27;6.88;;;;;;;;;;4878910;29;20044;-43
2021/06/19 13:44:24;;;;;;;12.65;8.52;;;;;;;;;;4878877;29;20472;-44
2021/06/19 13:46:50;;;;;;;12.85;6.72;;;;;;;;;;4879270;29;20029;-44
2021/06/19 13:49:16;;;;;;;9.38;7.45;;;;;;;;;;4878930;29;20128;-43
2021/06/19 13:51:52;;;;;;;10.10;6.72;;;;;;;;;;4878832;29;20058;-43
2021/06/19 13:54:17;;;;;;;12.98;6.38;;;;;;;;;;4878777;29;20029;-43
2021/06/19 13:56:43;;;;;;;10.38;6.75;;;;;;;;;;4878837;29;20017;-44
2021/06/19 13:59:08;;;;;;;8.85;6.35;;;;;;;;;;4879092;29;20037;-43
2021/06/19 14:01:34;;;;;;;8.25;6.13;;;;;;;;;;4878815;29;20032;-44
2021/06/19 14:04:00;;;;;;;7.65;6.60;;;;;;;;;;4877846;29;20040;-44
2021/06/19 14:06:26;;;;;;;8.48;6.60;;;;;;;;;;4878697;29;20021;-43
2021/06/19 14:08:52;;;;;;;18.52;4.65;;;;;;;;;;4878925;29;20029;-43
2021/06/19 14:11:25;;;;;;;8.70;6.68;;;;;;;;;;4878999;29;20024;-43
2021/06/19 14:13:51;;;;;;;14.05;6.25;;;;;;;;;;4878584;29;20048;-43
2021/06/19 14:16:17;;;;;;;10.18;7.10;;;;;;;;;;4878554;29;20025;-43
2021/06/19 14:18:43;;;;;;;8.63;5.22;;;;;;;;;;4878748;29;20037;-45
2021/06/19 14:21:09;;;;;;;8.30;6.90;;;;;;;;;;4878525;29;20040;-44
2021/06/19 14:23:36;;;;;;;10.65;6.28;;;;;;;;;;4878458;29;20117;-44
2021/06/19 14:26:02;;;;;;;10.98;6.60;;;;;;;;;;4878803;29;20025;-44
2021/06/19 14:28:28;;;;;;;12.50;6.75;;;;;;;;;;4878675;29;20127;-45
2021/06/19 14:30:54;;;;;;;8.05;6.20;;;;;;;;;;4878738;29;20096;-44
2021/06/19 14:33:19;;;;;;;12.27;6.45;;;;;;;;;;4878455;29;20131;-44
2021/06/19 14:35:45;;;;;;;12.57;6.68;;;;;;;;;;4878636;29;20017;-44
2021/06/19 14:38:10;;;;;;;12.85;6.63;;;;;;;;;;4880093;29;20053;-44